Latest Coastal Weather Observations for Merimbula

IDN60701

Issued at 9:52 am EST Friday 14 August 2020 (issued every 10 minutes, with the page automatically refreshed every 10 minutes)

About coastal observations | Map of coastal stations | Coastal observations for NSW | Marine services | Other Formats
Station Details ID: 069147 Name: MERIMBULA AIRPORT AWS Lat: -36.91 Lon: 149.90 Height: 1.5 m
Data from the previous 72 hours. | See also: Recent months at Merimbula
Date/Time
EST
Wind Sea
Height
m
Swell Vis
km
Cloud Weather Temp
°C
Press
hPa
Rain since
9am
mm
Dir  Spd
kts
Gust
kts
Height
m
Period
s
Dir
14/09:30am CALM 0 1 - - - - 10 - - 15.1 1015.7 0.0
14/09:00am CALM 0 3 - - - - 10 - - 13.1 1015.6 0.0
14/08:30am CALM 0 0 - - - - 10 - - 10.3 1015.3 0.0
14/08:00am CALM 0 0 - - - - 10 - - 8.5 1015.1 0.0
14/07:30am CALM 0 0 - - - - 10 - - 6.3 1015.0 0.0
14/07:00am CALM 0 0 - - - - 10 - - 6.0 1015.1 0.0
14/06:30am CALM 0 0 - - - - 10 - - 6.4 1015.0 0.0
14/06:00am CALM 0 0 - - - - 10 - - 6.5 1014.8 0.0
14/05:30am CALM 0 0 - - - - 10 - - 6.8 1014.7 0.0
14/05:00am CALM 0 0 - - - - 10 - - 6.9 1014.5 0.0
14/04:30am CALM 0 0 - - - - 10 - - 6.6 1014.5 0.0
14/04:00am CALM 0 0 - - - - 10 - - 7.7 1014.4 0.0
14/03:30am CALM 0 0 - - - - 10 Partly cloudy - 8.4 1014.6 0.0
14/03:00am CALM 0 0 - - - - 10 Cloudy - 8.8 1014.5 0.0
14/02:30am CALM 0 0 - - - - 10 Cloudy - 9.0 1014.9 0.0
14/02:00am CALM 0 0 - - - - 10 Cloudy - 8.6 1015.2 0.0
14/01:30am CALM 0 0 - - - - 10 Cloudy - 9.0 1015.3 0.0
14/01:00am CALM 0 0 - - - - 10 Cloudy - 9.0 1015.3 0.0
14/12:30am CALM 0 0 - - - - 10 Cloudy - 9.0 1015.3 0.0
14/12:00am CALM 0 0 - - - - 10 Mostly cloudy - 9.2 1015.4 0.0
 
Date/Time
EST
Wind Sea
Height
m
Swell Vis
km
Cloud Weather Temp
°C
Press
hPa
Rain since
9am
mm
Dir  Spd
kts
Gust
kts
Height
m
Period
s
Dir
13/11:30pm CALM 0 0 - - - - 10 Cloudy - 9.3 1015.4 0.0
13/11:00pm CALM 0 0 - - - - 10 Cloudy - 9.6 1015.4 0.0
13/10:30pm CALM 0 0 - - - - 10 Cloudy - 9.9 1015.5 0.0
13/10:00pm CALM 0 0 - - - - 10 Partly cloudy - 10.1 1015.5 0.0
13/09:30pm CALM 0 0 - - - - 10 Partly cloudy - 10.9 1015.5 0.0
13/09:00pm CALM 0 0 - - - - 10 Cloudy - 10.8 1015.4 0.0
13/08:30pm CALM 0 0 - - - - 10 Cloudy - 10.9 1015.1 0.0
13/08:00pm CALM 0 0 - - - - 10 Cloudy - 10.9 1014.9 0.0
13/07:30pm CALM 0 0 - - - - 10 Cloudy - 11.0 1014.6 0.0
13/07:00pm CALM 0 0 - - - - 10 Cloudy - 11.4 1014.3 0.0
13/06:30pm CALM 0 0 - - - - 10 Cloudy - 11.5 1014.0 0.0
13/06:00pm CALM 0 0 - - - - 10 Partly cloudy - 11.6 1013.3 0.0
13/05:30pm CALM 0 0 - - - - 10 Partly cloudy - 12.7 1013.0 0.0
13/05:00pm CALM 0 0 - - - - 10 - - 14.2 1012.7 0.0
13/04:30pm CALM 0 0 - - - - 10 - - 15.4 1012.7 0.0
13/04:00pm SE 4 5 - - - - 10 - - 17.1 1012.5 0.0
13/03:30pm E 5 7 - - - - 10 - - 17.6 1012.3 0.0
13/03:00pm E 4 7 - - - - 10 Partly cloudy - 18.2 1012.1 0.0
13/02:30pm E 5 8 - - - - 10 Partly cloudy - 17.4 1012.0 0.0
13/02:00pm E 5 8 - - - - 10 Partly cloudy - 18.1 1011.7 0.0
13/01:30pm ENE 6 8 - - - - 10 Partly cloudy - 17.9 1011.9 0.0
13/01:00pm ENE 6 8 - - - - 10 Partly cloudy - 18.0 1012.1 0.0
13/12:30pm E 5 8 - - - - 10 Cloudy - 17.3 1012.5 0.0
13/12:00pm E 6 9 - - - - 10 Partly cloudy - 18.2 1012.7 0.0
13/11:30am E 5 8 - - - - 10 - - 18.1 1012.9 0.0
13/11:00am E 4 7 - - - - 10 - - 17.9 1013.0 0.0
13/10:30am E 5 6 - - - - 10 - - 17.0 1013.2 0.0
13/10:00am SSW 3 5 - - - - 10 Partly cloudy - 17.0 1013.1 0.0
13/09:30am CALM 0 0 - - - - 10 - - 14.7 1013.2 0.0
13/09:00am CALM 0 0 - - - - 10 - - 12.7 1013.3 0.0
13/08:30am CALM 0 0 - - - - 10 - - 10.0 1013.0 0.0
13/08:00am CALM 0 0 - - - - 10 Partly cloudy - 8.5 1012.7 0.0
13/07:30am NW 3 5 - - - - 10 Partly cloudy - 7.3 1012.2 0.0
13/07:00am NW 4 5 - - - - 10 - - 6.7 1011.8 0.0
13/06:30am NW 5 6 - - - - 10 Partly cloudy - 6.9 1011.3 0.0
13/06:00am WSW 3 4 - - - - 10 - - 5.9 1011.0 0.0
13/05:30am WNW 3 4 - - - - 10 - - 6.5 1010.9 0.0
13/05:00am WNW 4 5 - - - - 10 Partly cloudy - 7.0 1010.8 0.0
13/04:30am WNW 4 5 - - - - 10 Partly cloudy - 7.0 1010.7 0.0
13/04:00am W 3 4 - - - - 10 - - 6.6 1010.4 0.0
13/03:30am W 3 4 - - - - 10 Partly cloudy - 6.9 1010.4 0.0
13/03:00am NNW 2 3 - - - - 10 Mostly clear - 6.8 1010.4 0.0
13/02:30am NNW 4 6 - - - - 10 Partly cloudy - 8.1 1010.5 0.0
13/02:00am NW 5 7 - - - - 10 - - 8.0 1010.4 0.0
13/01:30am NW 5 6 - - - - 10 - - 8.1 1010.4 0.0
13/01:00am SSW 5 7 - - - - 10 - - 7.8 1010.3 0.0
13/12:30am SSW 3 5 - - - - 10 - - 7.6 1010.2 0.0
13/12:00am SW 4 6 - - - - 10 Partly cloudy - 8.2 1010.4 0.0
 
Date/Time
EST
Wind Sea
Height
m
Swell Vis
km
Cloud Weather Temp
°C
Press
hPa
Rain since
9am
mm
Dir  Spd
kts
Gust
kts
Height
m
Period
s
Dir
12/11:30pm CALM 0 0 - - - - 10 Partly cloudy - 8.8 1010.7 0.0
12/11:00pm WSW 1 5 - - - - 10 Cloudy - 9.4 1010.8 0.0
12/10:30pm SSW 6 9 - - - - 10 Partly cloudy - 9.5 1011.1 0.0
12/10:00pm W 3 6 - - - - 10 Cloudy - 9.3 1011.3 0.0
12/09:30pm SSE 1 4 - - - - 10 Partly cloudy - 9.7 1011.4 0.0
12/09:00pm NW 3 4 - - - - 10 Cloudy - 10.0 1011.5 0.0
12/08:30pm NW 5 6 - - - - 10 Cloudy - 10.2 1011.5 0.0
12/08:00pm SW 1 4 - - - - 10 Partly cloudy - 10.6 1011.4 0.0
12/07:30pm CALM 0 0 - - - - 10 Partly cloudy - 10.9 1011.3 0.0
12/07:00pm NW 3 5 - - - - 10 Partly cloudy - 11.8 1011.1 0.0
12/06:30pm NW 4 5 - - - - 10 Cloudy - 12.3 1010.9 0.0
12/06:00pm CALM 0 0 - - - - 10 Cloudy - 12.8 1010.7 0.0
12/05:30pm CALM 0 0 - - - - 10 Cloudy - 13.5 1010.7 0.0
12/05:00pm CALM 0 0 - - - - 10 Cloudy - 13.9 1010.5 0.0
12/04:30pm CALM 0 3 - - - - 10 Partly cloudy - 14.8 1010.5 0.0
12/04:00pm CALM 0 2 - - - - 10 Cloudy - 15.6 1010.4 0.0
12/03:30pm CALM 0 0 - - - - 10 - - 16.1 1010.5 0.0
12/03:00pm CALM 0 0 - - - - 10 Cloudy - 16.0 1010.6 0.0
12/02:30pm CALM 0 0 - - - - 10 Cloudy - 15.8 1010.8 0.0
12/02:00pm NE 5 7 - - - - 10 Partly cloudy - 14.6 1010.8 0.0
12/01:30pm NE 7 11 - - - - 10 Partly cloudy - 14.7 1011.1 0.0
12/01:00pm E 3 5 - - - - 10 Cloudy - 15.1 1011.3 0.0
12/12:30pm ENE 6 8 - - - - 10 Cloudy - 14.8 1012.0 0.0
12/12:00pm SSW 3 6 - - - - 10 Cloudy - 14.9 1012.4 0.0
12/11:30am CALM 0 0 - - - - 10 Cloudy - 14.3 1013.0 0.0
12/11:00am WNW 3 5 - - - - 10 Partly cloudy - 13.3 1014.0 0.0
12/10:30am SW 3 4 - - - - 10 Cloudy - 11.5 1014.6 0.0
12/10:00am NW 4 6 - - - - 10 - - 10.6 1014.7 0.0
12/09:30am WNW 2 5 - - - - 10 - - 9.2 1015.0 0.0
12/09:00am SW 3 5 - - - - 10 Cloudy - 7.8 1014.8 0.0
12/08:30am CALM 0 4 - - - - 10 - - 7.4 1014.5 0.0
12/08:00am SSW 2 5 - - - - 10 - - 6.8 1014.5 0.0
12/07:30am SW 5 6 - - - - 10 - - 6.2 1014.2 0.0
12/07:00am SSW 3 4 - - - - 10 - - 6.0 1014.2 0.0
12/06:30am CALM 0 0 - - - - 10 - - 6.2 1014.2 0.0
12/06:00am CALM 0 0 - - - - 10 Cloudy - 6.4 1014.0 0.0
12/05:30am CALM 0 0 - - - - 10 - - 4.7 1014.3 0.0
12/05:00am CALM 0 0 - - - - 10 - - 5.2 1014.5 0.0
12/04:30am CALM 0 0 - - - - 10 - - 5.4 1014.1 0.0
12/04:00am CALM 0 0 - - - - 10 - - 6.0 1014.2 0.0
12/03:30am CALM 0 0 - - - - 10 - - 6.1 1014.6 0.0
12/03:00am CALM 0 0 - - - - 10 Cloudy - 6.0 1014.6 0.0
12/02:30am CALM 0 0 - - - - 10 - - 6.2 1014.8 0.0
12/02:00am CALM 0 0 - - - - 10 - - 6.1 1015.3 0.0
12/01:30am CALM 0 0 - - - - 10 - - 5.9 1015.6 0.0
12/01:00am WSW 2 6 - - - - 10 - - 6.5 1015.9 0.0
12/12:30am CALM 0 0 - - - - 10 - - 6.1 1016.0 0.0
12/12:00am CALM 0 0 - - - - 10 Partly cloudy - 5.7 1016.0 0.0
 
Date/Time
EST
Wind Sea
Height
m
Swell Vis
km
Cloud Weather Temp
°C
Press
hPa
Rain since
9am
mm
Dir  Spd
kts
Gust
kts
Height
m
Period
s
Dir
11/11:30pm CALM 0 0 - - - - 10 - - 5.8 1016.3 0.0
11/11:00pm CALM 0 0 - - - - 10 - - 6.3 1016.7 0.0
11/10:30pm CALM 0 0 - - - - 10 - - 6.3 1016.6 0.0
11/10:00pm CALM 0 0 - - - - 10 - - 6.7 1016.9 0.0
11/09:30pm CALM 0 0 - - - - 10 - - 6.5 1017.1 0.0
11/09:00pm CALM 0 0 - - - - 10 - - 7.5 1017.5 0.0
11/08:30pm CALM 0 0 - - - - 10 - - 8.0 1017.9 0.0
11/08:00pm CALM 0 0 - - - - 10 - - 8.7 1017.7 0.0
11/07:30pm CALM 0 0 - - - - 10 - - 9.1 1017.5 0.0
11/07:00pm CALM 0 0 - - - - 10 - - 10.0 1017.8 0.0
11/06:30pm WNW 1 4 - - - - 10 - - 11.6 1017.6 0.0
11/06:00pm N 5 8 - - - - 10 - - 13.0 1017.0 0.0
11/05:30pm NNE 6 11 - - - - 10 - - 13.4 1016.6 0.0
11/05:00pm NNE 7 12 - - - - 10 - - 14.1 1016.6 0.0
11/04:30pm NNE 8 12 - - - - 10 - - 14.6 1016.5 0.0
11/04:00pm NNE 8 16 - - - - 10 - - 15.4 1016.4 0.0
11/03:30pm NNE 8 14 - - - - 10 - - 15.7 1016.5 0.0
11/03:00pm NNE 9 15 - - - - 10 - - 15.8 1016.6 0.0
11/02:30pm NE 10 17 - - - - 10 - - 15.7 1016.8 0.0
11/02:00pm NE 11 16 - - - - 10 - - 15.8 1017.1 0.0
11/01:30pm NE 9 14 - - - - 10 - - 16.1 1017.4 0.0
11/01:00pm NE 9 14 - - - - 10 - - 16.1 1017.7 0.0
11/12:30pm NNE 6 10 - - - - 10 - - 16.7 1018.3 0.0
11/12:00pm N 6 11 - - - - 10 - - 16.2 1019.0 0.0
11/11:30am NW 8 11 - - - - 10 - - 15.6 1019.6 0.0
11/11:00am NW 8 12 - - - - 10 - - 14.8 1020.1 0.0
11/10:30am NW 8 11 - - - - 10 - - 14.4 1020.5 0.0
11/10:00am NW 8 11 - - - - 10 - - 13.9 1020.9 0.0

Other formats

Comma delimited format used in spreadsheet applications
http://www.bom.gov.au/fwo/IDN60701/IDN60701.95929.axf

JavaScript Object Notation format (JSON) in row-major order
http://www.bom.gov.au/fwo/IDN60701/IDN60701.95929.json

Data quality

Most of these data are generated automatically and are frequently updated. Quality checks on data are not normally performed. It is possible for incorrect values to appear. Refer to information at About Latest Weather Observations and please check the disclaimer before using these data.